sensor_id;sensor_type;location;lat;lon;timestamp;pressure;altitude;pressure_sealevel;temperature;humidity
80103;BME280;69865;47.648;19.030;2023-08-24T00:00:13;100579.81;;;20.71;94.15
80103;BME280;69865;47.648;19.030;2023-08-24T00:00:45;100581.47;;;20.72;94.40
80103;BME280;69865;47.648;19.030;2023-08-24T00:01:17;100572.81;;;20.70;94.12
80103;BME280;69865;47.648;19.030;2023-08-24T00:01:50;100578.19;;;20.70;94.04
80103;BME280;69865;47.648;19.030;2023-08-24T00:02:22;100572.00;;;20.70;94.54
80103;BME280;69865;47.648;19.030;2023-08-24T00:02:54;100568.66;;;20.68;94.32
80103;BME280;69865;47.648;19.030;2023-08-24T00:03:26;100579.19;;;20.69;94.23
80103;BME280;69865;47.648;19.030;2023-08-24T00:03:58;100570.31;;;20.69;94.50
80103;BME280;69865;47.648;19.030;2023-08-24T00:04:30;100569.31;;;20.70;94.51
80103;BME280;69865;47.648;19.030;2023-08-24T00:05:03;100575.50;;;20.70;94.00
80103;BME280;69865;47.648;19.030;2023-08-24T00:05:35;100573.44;;;20.72;94.24
80103;BME280;69865;47.648;19.030;2023-08-24T00:06:07;100570.59;;;20.74;93.81
80103;BME280;69865;47.648;19.030;2023-08-24T00:06:39;100569.53;;;20.75;93.71
80103;BME280;69865;47.648;19.030;2023-08-24T00:07:11;100573.06;;;20.75;94.02
80103;BME280;69865;47.648;19.030;2023-08-24T00:07:43;100572.00;;;20.70;93.76
80103;BME280;69865;47.648;19.030;2023-08-24T00:08:15;100574.66;;;20.70;94.17
80103;BME280;69865;47.648;19.030;2023-08-24T00:08:47;100568.88;;;20.66;94.45
80103;BME280;69865;47.648;19.030;2023-08-24T00:09:20;100574.66;;;20.70;94.27
80103;BME280;69865;47.648;19.030;2023-08-24T00:09:52;100580.38;;;20.67;94.08
80103;BME280;69865;47.648;19.030;2023-08-24T00:10:25;100578.09;;;20.63;94.07
80103;BME280;69865;47.648;19.030;2023-08-24T00:10:58;100577.84;;;20.58;94.28
80103;BME280;69865;47.648;19.030;2023-08-24T00:11:30;100578.06;;;20.57;94.83
80103;BME280;69865;47.648;19.030;2023-08-24T00:12:02;100582.56;;;20.56;94.40
80103;BME280;69865;47.648;19.030;2023-08-24T00:12:36;100578.22;;;20.55;94.79
80103;BME280;69865;47.648;19.030;2023-08-24T00:13:08;100574.72;;;20.55;94.64
80103;BME280;69865;47.648;19.030;2023-08-24T00:13:40;100570.59;;;20.52;94.73
80103;BME280;69865;47.648;19.030;2023-08-24T00:14:12;100575.28;;;20.50;95.02
80103;BME280;69865;47.648;19.030;2023-08-24T00:14:44;100578.63;;;20.52;94.58
80103;BME280;69865;47.648;19.030;2023-08-24T00:15:17;100575.09;;;20.52;94.90
80103;BME280;69865;47.648;19.030;2023-08-24T00:15:49;100582.13;;;20.53;94.82
80103;BME280;69865;47.648;19.030;2023-08-24T00:16:21;100581.13;;;20.54;94.82
80103;BME280;69865;47.648;19.030;2023-08-24T00:16:53;100582.50;;;20.50;95.15
80103;BME280;69865;47.648;19.030;2023-08-24T00:17:25;100581.41;;;20.44;95.07
80103;BME280;69865;47.648;19.030;2023-08-24T00:17:57;100582.25;;;20.45;95.46
80103;BME280;69865;47.648;19.030;2023-08-24T00:18:29;100581.03;;;20.47;95.45
80103;BME280;69865;47.648;19.030;2023-08-24T00:19:01;100582.03;;;20.46;95.04
80103;BME280;69865;47.648;19.030;2023-08-24T00:19:33;100585.75;;;20.45;95.52
80103;BME280;69865;47.648;19.030;2023-08-24T00:20:07;100582.25;;;20.45;95.23
80103;BME280;69865;47.648;19.030;2023-08-24T00:20:39;100575.06;;;20.45;95.06
80103;BME280;69865;47.648;19.030;2023-08-24T00:21:12;100572.81;;;20.49;94.74
80103;BME280;69865;47.648;19.030;2023-08-24T00:21:44;100571.59;;;20.51;95.33
80103;BME280;69865;47.648;19.030;2023-08-24T00:22:16;100575.94;;;20.52;94.93
80103;BME280;69865;47.648;19.030;2023-08-24T00:22:49;100567.09;;;20.52;94.74
80103;BME280;69865;47.648;19.030;2023-08-24T00:23:21;100571.22;;;20.54;95.07
80103;BME280;69865;47.648;19.030;2023-08-24T00:23:53;100566.69;;;20.55;95.16
80103;BME280;69865;47.648;19.030;2023-08-24T00:24:25;100564.41;;;20.52;95.11
80103;BME280;69865;47.648;19.030;2023-08-24T00:24:57;100573.28;;;20.52;95.15
80103;BME280;69865;47.648;19.030;2023-08-24T00:25:30;100571.22;;;20.54;95.08
80103;BME280;69865;47.648;19.030;2023-08-24T00:26:02;100560.91;;;20.51;94.73
80103;BME280;69865;47.648;19.030;2023-08-24T00:26:34;100571.03;;;20.56;94.92
80103;BME280;69865;47.648;19.030;2023-08-24T00:27:06;100564.00;;;20.55;94.85
80103;BME280;69865;47.648;19.030;2023-08-24T00:27:40;100571.03;;;20.56;94.92
80103;BME280;69865;47.648;19.030;2023-08-24T00:28:14;100569.75;;;20.52;94.93
80103;BME280;69865;47.648;19.030;2023-08-24T00:28:47;100571.41;;;20.53;94.82
80103;BME280;69865;47.648;19.030;2023-08-24T00:29:19;100566.25;;;20.51;94.83
80103;BME280;69865;47.648;19.030;2023-08-24T00:29:51;100571.16;;;20.48;95.03
80103;BME280;69865;47.648;19.030;2023-08-24T00:30:23;100571.34;;;20.46;95.34
80103;BME280;69865;47.648;19.030;2023-08-24T00:30:56;100568.75;;;20.53;95.05
80103;BME280;69865;47.648;19.030;2023-08-24T00:31:28;100565.41;;;20.51;94.79
80103;BME280;69865;47.648;19.030;2023-08-24T00:32:00;100568.09;;;20.51;95.17
80103;BME280;69865;47.648;19.030;2023-08-24T00:32:32;100562.38;;;20.54;95.06
80103;BME280;69865;47.648;19.030;2023-08-24T00:33:04;100571.16;;;20.48;95.30
80103;BME280;69865;47.648;19.030;2023-08-24T00:33:36;100572.38;;;20.45;95.57
80103;BME280;69865;47.648;19.030;2023-08-24T00:34:08;100568.66;;;20.46;95.19
80103;BME280;69865;47.648;19.030;2023-08-24T00:34:40;100575.06;;;20.45;95.33
80103;BME280;69865;47.648;19.030;2023-08-24T00:35:13;100571.16;;;20.48;95.31
80103;BME280;69865;47.648;19.030;2023-08-24T00:35:45;100574.66;;;20.48;95.24
80103;BME280;69865;47.648;19.030;2023-08-24T00:36:18;100582.25;;;20.45;95.67
80103;BME280;69865;47.648;19.030;2023-08-24T00:36:51;100582.25;;;20.45;95.13
80103;BME280;69865;47.648;19.030;2023-08-24T00:37:23;100574.84;;;20.47;95.45
80103;BME280;69865;47.648;19.030;2023-08-24T00:37:55;100576.69;;;20.46;95.19
80103;BME280;69865;47.648;19.030;2023-08-24T00:38:27;100578.75;;;20.44;95.43
80103;BME280;69865;47.648;19.030;2023-08-24T00:38:59;100581.16;;;20.39;95.68
80103;BME280;69865;47.648;19.030;2023-08-24T00:39:31;100576.50;;;20.48;95.83
80103;BME280;69865;47.648;19.030;2023-08-24T00:40:05;100585.75;;;20.45;95.74
80103;BME280;69865;47.648;19.030;2023-08-24T00:40:38;100587.78;;;20.43;95.59
80103;BME280;69865;47.648;19.030;2023-08-24T00:41:10;100571.09;;;20.41;95.23
80103;BME280;69865;47.648;19.030;2023-08-24T00:41:42;100581.41;;;20.44;95.44
80103;BME280;69865;47.648;19.030;2023-08-24T00:42:14;100584.72;;;20.46;95.71
80103;BME280;69865;47.648;19.030;2023-08-24T00:42:47;100588.78;;;20.42;95.31
80103;BME280;69865;47.648;19.030;2023-08-24T00:43:20;100582.81;;;20.40;95.41
80103;BME280;69865;47.648;19.030;2023-08-24T00:43:52;100584.09;;;20.44;95.78
80103;BME280;69865;47.648;19.030;2023-08-24T00:44:24;100582.44;;;20.43;95.71
80103;BME280;69865;47.648;19.030;2023-08-24T00:44:56;100581.41;;;20.44;95.60
80103;BME280;69865;47.648;19.030;2023-08-24T00:45:30;100571.28;;;20.40;95.18
80103;BME280;69865;47.648;19.030;2023-08-24T00:46:03;100580.59;;;20.44;95.64
80103;BME280;69865;47.648;19.030;2023-08-24T00:46:35;100573.97;;;20.40;95.99
80103;BME280;69865;47.648;19.030;2023-08-24T00:47:08;100566.94;;;20.39;95.73
80103;BME280;69865;47.648;19.030;2023-08-24T00:47:44;100575.19;;;20.37;96.01
80103;BME280;69865;47.648;19.030;2023-08-24T00:48:17;100574.13;;;20.38;96.10
80103;BME280;69865;47.648;19.030;2023-08-24T00:48:49;100573.97;;;20.40;95.91
80103;BME280;69865;47.648;19.030;2023-08-24T00:49:22;100571.66;;;20.37;95.75
80103;BME280;69865;47.648;19.030;2023-08-24T00:49:54;100573.53;;;20.36;95.80
80103;BME280;69865;47.648;19.030;2023-08-24T00:50:26;100578.47;;;20.39;95.86
80103;BME280;69865;47.648;19.030;2023-08-24T00:51:00;100575.81;;;20.39;96.07
80103;BME280;69865;47.648;19.030;2023-08-24T00:51:32;100582.16;;;20.38;96.00
80103;BME280;69865;47.648;19.030;2023-08-24T00:52:04;100579.13;;;20.41;96.00
80103;BME280;69865;47.648;19.030;2023-08-24T00:52:38;100582.16;;;20.38;95.64
80103;BME280;69865;47.648;19.030;2023-08-24T00:53:12;100577.66;;;20.39;95.55
80103;BME280;69865;47.648;19.030;2023-08-24T00:53:45;100582.81;;;20.40;96.00
80103;BME280;69865;47.648;19.030;2023-08-24T00:54:18;100582.63;;;20.42;96.18
80103;BME280;69865;47.648;19.030;2023-08-24T00:54:50;100578.69;;;20.38;95.72
80103;BME280;69865;47.648;19.030;2023-08-24T00:55:23;100579.50;;;20.38;96.01
80103;BME280;69865;47.648;19.030;2023-08-24T00:55:55;100586.13;;;20.42;95.78
80103;BME280;69865;47.648;19.030;2023-08-24T00:56:27;100588.34;;;20.39;95.67
80103;BME280;69865;47.648;19.030;2023-08-24T00:56:59;100581.72;;;20.35;95.71
80103;BME280;69865;47.648;19.030;2023-08-24T00:57:33;100583.59;;;20.34;96.03
80103;BME280;69865;47.648;19.030;2023-08-24T00:58:07;100585.88;;;20.37;95.68
80103;BME280;69865;47.648;19.030;2023-08-24T00:58:40;100585.22;;;20.35;95.71
80103;BME280;69865;47.648;19.030;2023-08-24T00:59:12;100582.56;;;20.35;95.74
80103;BME280;69865;47.648;19.030;2023-08-24T00:59:44;100585.78;;;20.31;96.14
80103;BME280;69865;47.648;19.030;2023-08-24T01:00:17;100590.13;;;20.32;96.20
80103;BME280;69865;47.648;19.030;2023-08-24T01:00:51;100584.16;;;20.30;96.29
80103;BME280;69865;47.648;19.030;2023-08-24T01:01:23;100583.59;;;20.34;95.87
80103;BME280;69865;47.648;19.030;2023-08-24T01:01:55;100581.94;;;20.33;95.97
80103;BME280;69865;47.648;19.030;2023-08-24T01:02:27;100578.25;;;20.34;96.15
80103;BME280;69865;47.648;19.030;2023-08-24T01:03:00;100588.94;;;20.34;95.78
80103;BME280;69865;47.648;19.030;2023-08-24T01:03:32;100591.41;;;20.36;96.20
80103;BME280;69865;47.648;19.030;2023-08-24T01:04:05;100586.06;;;20.36;95.51
80103;BME280;69865;47.648;19.030;2023-08-24T01:04:41;100592.50;;;20.41;95.68
80103;BME280;69865;47.648;19.030;2023-08-24T01:05:13;100590.84;;;20.40;95.49
80103;BME280;69865;47.648;19.030;2023-08-24T01:05:45;100592.13;;;20.44;95.81
80103;BME280;69865;47.648;19.030;2023-08-24T01:06:17;100590.66;;;20.42;95.95
80103;BME280;69865;47.648;19.030;2023-08-24T01:06:50;100591.13;;;20.45;95.50
80103;BME280;69865;47.648;19.030;2023-08-24T01:07:22;100594.63;;;20.46;95.18
80103;BME280;69865;47.648;19.030;2023-08-24T01:07:54;100595.25;;;20.48;95.78
80103;BME280;69865;47.648;19.030;2023-08-24T01:08:26;100599.38;;;20.50;95.34
80103;BME280;69865;47.648;19.030;2023-08-24T01:08:58;100594.84;;;20.51;95.08
80103;BME280;69865;47.648;19.030;2023-08-24T01:09:31;100589.88;;;20.48;95.40
80103;BME280;69865;47.648;19.030;2023-08-24T01:10:04;100598.56;;;20.50;94.97
80103;BME280;69865;47.648;19.030;2023-08-24T01:10:44;100590.72;;;20.48;95.07
80103;BME280;69865;47.648;19.030;2023-08-24T01:11:27;100591.56;;;20.49;94.99
80103;BME280;69865;47.648;19.030;2023-08-24T01:12:07;100591.34;;;20.50;94.81
80103;BME280;69865;47.648;19.030;2023-08-24T01:12:50;100600.59;;;20.48;94.95
80103;BME280;69865;47.648;19.030;2023-08-24T01:13:31;100585.75;;;20.45;94.87
80103;BME280;69865;47.648;19.030;2023-08-24T01:14:14;100590.06;;;20.46;95.08
80103;BME280;69865;47.648;19.030;2023-08-24T01:14:57;100586.22;;;20.49;94.94
80103;BME280;69865;47.648;19.030;2023-08-24T01:15:37;100589.06;;;20.47;95.02
80103;BME280;69865;47.648;19.030;2023-08-24T01:16:15;100584.81;;;20.53;94.74
80103;BME280;69865;47.648;19.030;2023-08-24T01:16:50;100584.97;;;20.51;94.92
80103;BME280;69865;47.648;19.030;2023-08-24T01:17:27;100576.50;;;20.48;94.76
80103;BME280;69865;47.648;19.030;2023-08-24T01:18:04;100579.63;;;20.51;94.57
80103;BME280;69865;47.648;19.030;2023-08-24T01:18:38;100583.59;;;20.55;94.66
80103;BME280;69865;47.648;19.030;2023-08-24T01:19:25;100576.78;;;20.53;94.72
80103;BME280;69865;47.648;19.030;2023-08-24T01:20:04;100580.06;;;20.55;94.71
80103;BME280;69865;47.648;19.030;2023-08-24T01:20:37;100576.78;;;20.53;94.88
80103;BME280;69865;47.648;19.030;2023-08-24T01:21:12;100576.38;;;20.56;94.61
80103;BME280;69865;47.648;19.030;2023-08-24T01:21:46;100573.53;;;20.57;94.46
80103;BME280;69865;47.648;19.030;2023-08-24T01:22:28;100571.03;;;20.56;94.35
80103;BME280;69865;47.648;19.030;2023-08-24T01:23:09;100572.44;;;20.52;94.70
80103;BME280;69865;47.648;19.030;2023-08-24T01:23:53;100575.38;;;20.57;94.68
80103;BME280;69865;47.648;19.030;2023-08-24T01:24:33;100571.03;;;20.56;94.17
80103;BME280;69865;47.648;19.030;2023-08-24T01:25:16;100569.44;;;20.61;94.36
80103;BME280;69865;47.648;19.030;2023-08-24T01:25:52;100570.72;;;20.66;94.36
80103;BME280;69865;47.648;19.030;2023-08-24T01:26:26;100566.19;;;20.66;94.17
80103;BME280;69865;47.648;19.030;2023-08-24T01:26:59;100566.81;;;20.68;93.92
80103;BME280;69865;47.648;19.030;2023-08-24T01:27:33;100568.50;;;20.69;94.53
80103;BME280;69865;47.648;19.030;2023-08-24T01:28:06;100564.31;;;20.67;94.14
80103;BME280;69865;47.648;19.030;2023-08-24T01:28:39;100567.25;;;20.72;94.78
80103;BME280;69865;47.648;19.030;2023-08-24T01:29:11;100565.16;;;20.67;94.36
80103;BME280;69865;47.648;19.030;2023-08-24T01:29:45;100567.84;;;20.67;94.15
80103;BME280;69865;47.648;19.030;2023-08-24T01:30:17;100570.72;;;20.66;93.96
80103;BME280;69865;47.648;19.030;2023-08-24T01:30:50;100566.97;;;20.60;94.67
80103;BME280;69865;47.648;19.030;2023-08-24T01:31:22;100567.97;;;20.59;94.71
80103;BME280;69865;47.648;19.030;2023-08-24T01:31:56;100563.66;;;20.58;94.46
80103;BME280;69865;47.648;19.030;2023-08-24T01:32:30;100565.25;;;20.52;94.77
80103;BME280;69865;47.648;19.030;2023-08-24T01:33:02;100571.59;;;20.51;94.35
80103;BME280;69865;47.648;19.030;2023-08-24T01:33:35;100570.84;;;20.57;94.39
80103;BME280;69865;47.648;19.030;2023-08-24T01:34:07;100569.00;;;20.58;94.62
80103;BME280;69865;47.648;19.030;2023-08-24T01:34:39;100569.00;;;20.58;94.55
80103;BME280;69865;47.648;19.030;2023-08-24T01:35:11;100572.03;;;20.55;94.75
80103;BME280;69865;47.648;19.030;2023-08-24T01:35:43;100571.69;;;20.58;94.55
80103;BME280;69865;47.648;19.030;2023-08-24T01:36:15;100570.66;;;20.59;94.41
80103;BME280;69865;47.648;19.030;2023-08-24T01:36:48;100569.44;;;20.61;94.30
80103;BME280;69865;47.648;19.030;2023-08-24T01:37:20;100571.75;;;20.65;94.46
80103;BME280;69865;47.648;19.030;2023-08-24T01:37:52;100569.69;;;20.67;93.91
80103;BME280;69865;47.648;19.030;2023-08-24T01:38:24;100564.16;;;20.68;93.82
80103;BME280;69865;47.648;19.030;2023-08-24T01:39:01;100574.03;;;20.68;93.73
80103;BME280;69865;47.648;19.030;2023-08-24T01:39:43;100569.31;;;20.70;94.09
80103;BME280;69865;47.648;19.030;2023-08-24T01:40:26;100571.16;;;20.69;93.59
80103;BME280;69865;47.648;19.030;2023-08-24T01:41:09;100567.09;;;20.73;93.61
80103;BME280;69865;47.648;19.030;2023-08-24T01:41:49;100567.91;;;20.74;93.79
80103;BME280;69865;47.648;19.030;2023-08-24T01:42:26;100572.22;;;20.75;93.99
80103;BME280;69865;47.648;19.030;2023-08-24T01:43:03;100574.91;;;20.75;94.06
80103;BME280;69865;47.648;19.030;2023-08-24T01:43:39;100573.06;;;20.75;93.80
80103;BME280;69865;47.648;19.030;2023-08-24T01:44:18;100574.66;;;20.70;94.01
80103;BME280;69865;47.648;19.030;2023-08-24T01:44:56;100575.69;;;20.69;94.05
80103;BME280;69865;47.648;19.030;2023-08-24T01:45:31;100574.59;;;20.63;94.10
80103;BME280;69865;47.648;19.030;2023-08-24T01:46:05;100576.25;;;20.64;94.36
80103;BME280;69865;47.648;19.030;2023-08-24T01:46:37;100573.97;;;20.61;93.88
80103;BME280;69865;47.648;19.030;2023-08-24T01:47:12;100577.09;;;20.65;93.90
80103;BME280;69865;47.648;19.030;2023-08-24T01:47:46;100573.53;;;20.57;93.91
80103;BME280;69865;47.648;19.030;2023-08-24T01:48:21;100574.09;;;20.53;94.79
80103;BME280;69865;47.648;19.030;2023-08-24T01:48:54;100568.75;;;20.53;94.74
80103;BME280;69865;47.648;19.030;2023-08-24T01:49:27;100572.25;;;20.53;94.74
80103;BME280;69865;47.648;19.030;2023-08-24T01:50:01;100570.59;;;20.52;94.99
80103;BME280;69865;47.648;19.030;2023-08-24T01:50:34;100566.50;;;20.56;94.54
80103;BME280;69865;47.648;19.030;2023-08-24T01:51:07;100571.41;;;20.53;95.09
80103;BME280;69865;47.648;19.030;2023-08-24T01:51:41;100578.63;;;20.52;94.97
80103;BME280;69865;47.648;19.030;2023-08-24T01:52:14;100570.78;;;20.51;95.20
80103;BME280;69865;47.648;19.030;2023-08-24T01:52:47;100577.97;;;20.50;94.93
80103;BME280;69865;47.648;19.030;2023-08-24T01:53:20;100575.09;;;20.52;95.29
80103;BME280;69865;47.648;19.030;2023-08-24T01:53:53;100574.50;;;20.50;94.63
80103;BME280;69865;47.648;19.030;2023-08-24T01:54:25;100578.22;;;20.55;94.84
80103;BME280;69865;47.648;19.030;2023-08-24T01:54:58;100571.28;;;20.61;94.61
80103;BME280;69865;47.648;19.030;2023-08-24T01:55:30;100580.16;;;20.61;93.94
80103;BME280;69865;47.648;19.030;2023-08-24T01:56:08;100570.47;;;20.60;94.36
80103;BME280;69865;47.648;19.030;2023-08-24T01:56:40;100568.41;;;20.62;94.09
80103;BME280;69865;47.648;19.030;2023-08-24T01:57:13;100577.72;;;20.67;93.96
80103;BME280;69865;47.648;19.030;2023-08-24T01:57:45;100573.41;;;20.66;93.88
80103;BME280;69865;47.648;19.030;2023-08-24T01:58:17;100572.56;;;20.65;93.96
80103;BME280;69865;47.648;19.030;2023-08-24T01:58:50;100570.91;;;20.64;94.05
80103;BME280;69865;47.648;19.030;2023-08-24T01:59:22;100571.75;;;20.65;93.95
80103;BME280;69865;47.648;19.030;2023-08-24T01:59:54;100573.19;;;20.67;94.03
80103;BME280;69865;47.648;19.030;2023-08-24T02:00:26;100569.88;;;20.65;93.94
80103;BME280;69865;47.648;19.030;2023-08-24T02:00:58;100568.03;;;20.66;93.99
80103;BME280;69865;47.648;19.030;2023-08-24T02:01:30;100566.19;;;20.66;93.75
80103;BME280;69865;47.648;19.030;2023-08-24T02:02:02;100572.56;;;20.65;93.97
80103;BME280;69865;47.648;19.030;2023-08-24T02:02:35;100571.75;;;20.65;93.53
80103;BME280;69865;47.648;19.030;2023-08-24T02:03:07;100577.09;;;20.65;93.75
80103;BME280;69865;47.648;19.030;2023-08-24T02:03:39;100565.38;;;20.66;93.70
80103;BME280;69865;47.648;19.030;2023-08-24T02:04:12;100564.47;;;20.58;93.96
80103;BME280;69865;47.648;19.030;2023-08-24T02:04:44;100570.03;;;20.57;94.24
80103;BME280;69865;47.648;19.030;2023-08-24T02:05:16;100568.78;;;20.59;93.95
80103;BME280;69865;47.648;19.030;2023-08-24T02:05:48;100576.00;;;20.59;94.25
80103;BME280;69865;47.648;19.030;2023-08-24T02:06:20;100575.16;;;20.58;93.98
80103;BME280;69865;47.648;19.030;2023-08-24T02:06:52;100572.97;;;20.62;93.65
80103;BME280;69865;47.648;19.030;2023-08-24T02:07:24;100572.97;;;20.62;93.69
80103;BME280;69865;47.648;19.030;2023-08-24T02:07:56;100569.00;;;20.58;94.16
80103;BME280;69865;47.648;19.030;2023-08-24T02:08:28;100571.91;;;20.63;93.71
80103;BME280;69865;47.648;19.030;2023-08-24T02:09:01;100574.97;;;20.60;93.68
80103;BME280;69865;47.648;19.030;2023-08-24T02:09:33;100574.97;;;20.60;93.91
80103;BME280;69865;47.648;19.030;2023-08-24T02:10:06;100564.94;;;20.62;93.60
80103;BME280;69865;47.648;19.030;2023-08-24T02:10:38;100568.66;;;20.68;93.79
80103;BME280;69865;47.648;19.030;2023-08-24T02:11:10;100568.03;;;20.66;93.50
80103;BME280;69865;47.648;19.030;2023-08-24T02:11:42;100575.69;;;20.69;93.92
80103;BME280;69865;47.648;19.030;2023-08-24T02:12:16;100568.03;;;20.66;93.67
80103;BME280;69865;47.648;19.030;2023-08-24T02:12:48;100573.63;;;20.71;93.33
80103;BME280;69865;47.648;19.030;2023-08-24T02:13:20;100575.44;;;20.63;93.62
80103;BME280;69865;47.648;19.030;2023-08-24T02:13:52;100567.59;;;20.62;93.60
80103;BME280;69865;47.648;19.030;2023-08-24T02:14:24;100567.59;;;20.62;93.53
80103;BME280;69865;47.648;19.030;2023-08-24T02:14:56;100562.88;;;20.64;93.95
80103;BME280;69865;47.648;19.030;2023-08-24T02:15:28;100565.16;;;20.67;93.36
80103;BME280;69865;47.648;19.030;2023-08-24T02:16:02;100557.97;;;20.68;93.72
80103;BME280;69865;47.648;19.030;2023-08-24T02:16:35;100572.00;;;20.70;93.63
80103;BME280;69865;47.648;19.030;2023-08-24T02:17:07;100566.00;;;20.68;93.90
80103;BME280;69865;47.648;19.030;2023-08-24T02:17:39;100568.09;;;20.72;93.42
80103;BME280;69865;47.648;19.030;2023-08-24T02:18:12;100570.16;;;20.70;93.42
80103;BME280;69865;47.648;19.030;2023-08-24T02:18:44;100562.75;;;20.72;93.99
80103;BME280;69865;47.648;19.030;2023-08-24T02:19:16;100559.44;;;20.70;93.83
80103;BME280;69865;47.648;19.030;2023-08-24T02:19:48;100567.66;;;20.69;94.25
80103;BME280;69865;47.648;19.030;2023-08-24T02:20:20;100568.03;;;20.66;94.40
80103;BME280;69865;47.648;19.030;2023-08-24T02:20:52;100569.06;;;20.65;93.92
80103;BME280;69865;47.648;19.030;2023-08-24T02:21:24;100563.53;;;20.66;94.50
80103;BME280;69865;47.648;19.030;2023-08-24T02:21:56;100562.69;;;20.66;94.27
80103;BME280;69865;47.648;19.030;2023-08-24T02:22:28;100563.88;;;20.63;94.65
80103;BME280;69865;47.648;19.030;2023-08-24T02:23:01;100562.25;;;20.62;94.69
80103;BME280;69865;47.648;19.030;2023-08-24T02:23:33;100570.47;;;20.60;94.42
80103;BME280;69865;47.648;19.030;2023-08-24T02:24:06;100563.66;;;20.58;95.14
80103;BME280;69865;47.648;19.030;2023-08-24T02:24:38;100566.50;;;20.56;95.12
80103;BME280;69865;47.648;19.030;2023-08-24T02:25:11;100560.72;;;20.53;94.87
80103;BME280;69865;47.648;19.030;2023-08-24T02:25:43;100566.47;;;20.50;95.31
80103;BME280;69865;47.648;19.030;2023-08-24T02:26:15;100567.88;;;20.46;95.57
80103;BME280;69865;47.648;19.030;2023-08-24T02:26:47;100564.72;;;20.42;96.04
80103;BME280;69865;47.648;19.030;2023-08-24T02:27:20;100560.75;;;20.38;95.40
80103;BME280;69865;47.648;19.030;2023-08-24T02:27:52;100554.59;;;20.38;96.03
80103;BME280;69865;47.648;19.030;2023-08-24T02:28:24;100557.66;;;20.35;95.78
80103;BME280;69865;47.648;19.030;2023-08-24T02:28:57;100559.69;;;20.33;95.85
80103;BME280;69865;47.648;19.030;2023-08-24T02:29:29;100558.03;;;20.32;96.42
80103;BME280;69865;47.648;19.030;2023-08-24T02:30:01;100554.34;;;20.33;96.19
80103;BME280;69865;47.648;19.030;2023-08-24T02:30:37;100557.03;;;20.33;96.41
80103;BME280;69865;47.648;19.030;2023-08-24T02:31:09;100554.72;;;20.30;96.13
80103;BME280;69865;47.648;19.030;2023-08-24T02:31:41;100561.53;;;20.32;95.76
80103;BME280;69865;47.648;19.030;2023-08-24T02:32:13;100559.03;;;20.31;96.07
80103;BME280;69865;47.648;19.030;2023-08-24T02:32:45;100553.06;;;20.29;95.94
80103;BME280;69865;47.648;19.030;2023-08-24T02:33:17;100554.53;;;20.31;95.94
80103;BME280;69865;47.648;19.030;2023-08-24T02:33:49;100558.03;;;20.32;95.66
80103;BME280;69865;47.648;19.030;2023-08-24T02:34:21;100553.69;;;20.31;95.97
80103;BME280;69865;47.648;19.030;2023-08-24T02:34:53;100557.84;;;20.33;95.74
80103;BME280;69865;47.648;19.030;2023-08-24T02:35:25;100556.19;;;20.32;95.47
80103;BME280;69865;47.648;19.030;2023-08-24T02:35:58;100548.81;;;20.34;95.75
80103;BME280;69865;47.648;19.030;2023-08-24T02:36:30;100551.50;;;20.34;95.42
80103;BME280;69865;47.648;19.030;2023-08-24T02:37:02;100548.81;;;20.34;95.51
80103;BME280;69865;47.648;19.030;2023-08-24T02:37:34;100548.59;;;20.36;95.71
80103;BME280;69865;47.648;19.030;2023-08-24T02:38:06;100542.41;;;20.35;95.19
80103;BME280;69865;47.648;19.030;2023-08-24T02:38:38;100548.44;;;20.37;95.30
80103;BME280;69865;47.648;19.030;2023-08-24T02:39:10;100549.25;;;20.38;95.78
80103;BME280;69865;47.648;19.030;2023-08-24T02:39:42;100545.94;;;20.36;95.57
80103;BME280;69865;47.648;19.030;2023-08-24T02:40:14;100548.59;;;20.36;95.75
80103;BME280;69865;47.648;19.030;2023-08-24T02:40:46;100548.81;;;20.34;95.63
80103;BME280;69865;47.648;19.030;2023-08-24T02:41:18;100552.19;;;20.28;96.21
80103;BME280;69865;47.648;19.030;2023-08-24T02:41:50;100541.69;;;20.27;96.24
80103;BME280;69865;47.648;19.030;2023-08-24T02:42:24;100550.31;;;20.22;96.48
80103;BME280;69865;47.648;19.030;2023-08-24T02:42:56;100560.34;;;20.20;96.59
80103;BME280;69865;47.648;19.030;2023-08-24T02:43:28;100553.72;;;20.16;96.98
80103;BME280;69865;47.648;19.030;2023-08-24T02:44:00;100548.56;;;20.14;96.83
80103;BME280;69865;47.648;19.030;2023-08-24T02:44:32;100556.97;;;20.11;97.06
80103;BME280;69865;47.648;19.030;2023-08-24T02:45:05;100559.00;;;20.09;97.21
80103;BME280;69865;47.648;19.030;2023-08-24T02:45:37;100561.84;;;20.08;97.33
80103;BME280;69865;47.648;19.030;2023-08-24T02:46:10;100551.56;;;20.05;97.52
80103;BME280;69865;47.648;19.030;2023-08-24T02:46:44;100560.31;;;19.99;97.90
80103;BME280;69865;47.648;19.030;2023-08-24T02:47:16;100559.84;;;19.95;98.33
80103;BME280;69865;47.648;19.030;2023-08-24T02:47:48;100557.28;;;19.87;98.58
80103;BME280;69865;47.648;19.030;2023-08-24T02:48:21;100557.84;;;19.83;98.66
80103;BME280;69865;47.648;19.030;2023-08-24T02:48:53;100560.72;;;19.81;98.66
80103;BME280;69865;47.648;19.030;2023-08-24T02:49:25;100552.44;;;19.76;98.79
80103;BME280;69865;47.648;19.030;2023-08-24T02:49:57;100557.97;;;19.75;98.66
80103;BME280;69865;47.648;19.030;2023-08-24T02:50:29;100559.00;;;19.74;98.58
80103;BME280;69865;47.648;19.030;2023-08-24T02:51:03;100559.56;;;19.69;98.29
80103;BME280;69865;47.648;19.030;2023-08-24T02:51:35;100560.56;;;19.68;98.40